Time;durP1;ratioP1;P1;durP2;ratioP2;P2;SDS_P1;SDS_P2;PMS_P1;PMS_P2;Temp;Humidity;BMP_temperature;BMP_pressure;BME280_temperature;BME280_humidity;BME280_pressure;Samples;Min_cycle;Max_cycle;Signal;HPM_P1;HPM_P2
2023/09/07 00:00:46;;;;;;;0.83;0.83;;;;;;;19.05;80.97;95792.00;4315237;33;20257;-68
2023/09/07 00:03:14;;;;;;;1.13;1.13;;;;;;;19.12;81.20;95804.91;4329077;33;20220;-68
2023/09/07 00:05:39;;;;;;;1.20;1.20;;;;;;;19.09;81.23;95798.28;4326982;33;20186;-68
2023/09/07 00:08:05;;;;;;;1.20;1.17;;;;;;;19.12;81.57;95800.28;4329153;33;20221;-68
2023/09/07 00:10:31;;;;;;;0.80;0.80;;;;;;;19.08;81.13;95795.94;4331248;33;20212;-67
2023/09/07 00:12:57;;;;;;;1.47;1.37;;;;;;;19.06;81.54;95796.25;4331534;33;20196;-67
2023/09/07 00:15:23;;;;;;;6.90;1.70;;;;;;;18.87;81.67;95796.81;4333710;33;20185;-68
2023/09/07 00:17:49;;;;;;;5.90;0.77;;;;;;;18.89;81.92;95799.16;4317870;33;20281;-68
2023/09/07 00:20:14;;;;;;;3.40;1.33;;;;;;;18.89;82.07;95791.09;4332593;32;20182;-68
2023/09/07 00:22:40;;;;;;;1.17;1.17;;;;;;;19.01;80.85;95785.72;4331739;33;20204;-68
2023/09/07 00:25:06;;;;;;;1.10;1.10;;;;;;;19.03;81.27;95783.47;4329865;33;20177;-68
2023/09/07 00:27:35;;;;;;;0.90;0.90;;;;;;;19.13;81.52;95779.56;4326083;32;20223;-68
2023/09/07 00:30:01;;;;;;;1.67;1.57;;;;;;;19.16;81.11;95776.97;4332126;32;20201;-67
2023/09/07 00:32:27;;;;;;;1.37;1.20;;;;;;;19.09;81.43;95778.69;4338405;32;20186;-67
2023/09/07 00:34:52;;;;;;;3.73;2.00;;;;;;;19.02;81.92;95781.13;4334643;33;20186;-67
2023/09/07 00:37:17;;;;;;;3.10;1.80;;;;;;;19.00;82.18;95784.16;4331757;33;20182;-67
2023/09/07 00:39:43;;;;;;;1.33;1.30;;;;;;;18.87;81.72;95778.00;4327976;33;20194;-67
2023/09/07 00:42:08;;;;;;;1.40;1.30;;;;;;;18.97;82.30;95773.28;4328181;32;20179;-67
2023/09/07 00:44:33;;;;;;;1.43;1.37;;;;;;;18.92;82.51;95776.97;4336405;32;20185;-68
2023/09/07 00:46:59;;;;;;;0.87;0.87;;;;;;;18.99;82.42;95774.50;4328073;32;20181;-67
2023/09/07 00:49:25;;;;;;;1.53;1.43;;;;;;;18.94;82.83;95780.09;4327689;33;20182;-68
2023/09/07 00:51:51;;;;;;;6.63;1.90;;;;;;;18.99;82.46;95782.59;4310457;33;20226;-67
2023/09/07 00:54:18;;;;;;;1.20;1.20;;;;;;;18.95;83.01;95783.56;4330922;32;20268;-67
2023/09/07 00:56:43;;;;;;;1.60;1.50;;;;;;;18.96;82.70;95791.31;4318009;33;20185;-68
2023/09/07 00:59:09;;;;;;;1.63;1.53;;;;;;;19.00;82.30;95786.06;4330028;33;20185;-68
2023/09/07 01:01:35;;;;;;;1.20;1.20;;;;;;;18.83;82.62;95785.16;4326146;33;20230;-67
2023/09/07 01:04:01;;;;;;;1.50;1.50;;;;;;;18.91;83.27;95780.00;4321976;33;20219;-67
2023/09/07 01:06:32;;;;;;;1.17;1.17;;;;;;;18.67;83.41;95781.53;4333398;33;20339;-67
2023/09/07 01:09:04;;;;;;;2.07;1.97;;;;;;;18.54;84.21;95786.06;4330679;32;20178;-67
2023/09/07 01:11:37;;;;;;;1.97;1.87;;;;;;;18.83;83.66;95787.06;4326578;33;20261;-68
2023/09/07 01:14:03;;;;;;;0.80;0.80;;;;;;;18.58;84.00;95780.03;4320723;33;20212;-67
2023/09/07 01:16:29;;;;;;;1.13;1.13;;;;;;;18.58;84.29;95786.19;4325717;33;20220;-67
2023/09/07 01:18:55;;;;;;;2.30;2.10;;;;;;;18.50;84.73;95781.69;4312518;33;20201;-67
2023/09/07 01:21:22;;;;;;;1.60;1.50;;;;;;;18.36;84.91;95773.13;4311686;33;20253;-67
2023/09/07 01:23:48;;;;;;;4.23;1.50;;;;;;;18.40;84.61;95777.53;4301652;33;20307;-68
2023/09/07 01:26:14;;;;;;;1.40;1.40;;;;;;;18.53;84.64;95771.06;4309532;33;20185;-68
2023/09/07 01:28:39;;;;;;;1.70;1.70;;;;;;;18.59;84.60;95771.66;4318353;33;20200;-67
2023/09/07 01:31:09;;;;;;;1.17;1.17;;;;;;;18.60;84.12;95764.38;4309660;33;20312;-68
2023/09/07 01:33:34;;;;;;;1.67;1.57;;;;;;;18.61;83.59;95763.28;4303894;33;20182;-68
2023/09/07 01:36:00;;;;;;;1.50;1.40;;;;;;;18.61;83.76;95769.44;4314581;33;20256;-68
2023/09/07 01:38:25;;;;;;;1.60;1.60;;;;;;;18.62;83.53;95773.69;4315422;33;20237;-68
2023/09/07 01:40:50;;;;;;;1.47;1.47;;;;;;;18.55;83.59;95763.44;4315436;33;20241;-68
2023/09/07 01:43:16;;;;;;;1.17;1.13;;;;;;;18.66;83.85;95773.81;4305912;33;20213;-68
2023/09/07 01:45:41;;;;;;;2.47;1.70;;;;;;;18.29;84.58;95760.22;4296183;33;20206;-68
2023/09/07 01:48:12;;;;;;;5.23;1.80;;;;;;;18.50;83.98;95768.25;4322053;33;20200;-68
2023/09/07 01:50:37;;;;;;;1.83;1.73;;;;;;;18.46;83.99;95770.81;4317885;33;20187;-68
2023/09/07 01:53:05;;;;;;;2.03;2.00;;;;;;;18.61;83.19;95765.97;4318357;33;20204;-68
2023/09/07 01:55:31;;;;;;;1.60;1.53;;;;;;;18.37;83.69;95766.66;4314927;33;20197;-68
2023/09/07 01:57:57;;;;;;;1.43;1.23;;;;;;;18.31;84.51;95768.75;4304756;33;20182;-68
2023/09/07 02:00:22;;;;;;;1.93;1.83;;;;;;;18.38;84.50;95766.31;4309752;33;20196;-68
2023/09/07 02:02:47;;;;;;;1.43;1.33;;;;;;;18.43;83.61;95762.66;4310064;33;20185;-68
2023/09/07 02:05:13;;;;;;;1.00;1.00;;;;;;;18.20;84.89;95762.25;4286156;33;20224;-67
2023/09/07 02:07:38;;;;;;;1.33;1.23;;;;;;;18.43;84.36;95758.06;4302610;33;20217;-67
2023/09/07 02:10:04;;;;;;;1.43;1.33;;;;;;;18.37;84.25;95756.69;4312527;33;20253;-67
2023/09/07 02:12:29;;;;;;;1.47;1.03;;;;;;;18.32;84.67;95761.47;4321396;33;20224;-68
2023/09/07 02:14:55;;;;;;;1.40;1.40;;;;;;;18.39;84.18;95759.03;4318286;33;20233;-67
2023/09/07 02:17:21;;;;;;;2.13;1.47;;;;;;;18.45;84.32;95761.19;4311696;33;20213;-67
2023/09/07 02:19:46;;;;;;;2.53;1.67;;;;;;;18.52;83.91;95763.31;4318689;33;21307;-67
2023/09/07 02:22:12;;;;;;;1.83;1.20;;;;;;;18.48;83.84;95765.13;4298444;33;20171;-68
2023/09/07 02:24:37;;;;;;;1.30;1.30;;;;;;;18.28;84.56;95756.00;4316086;33;20243;-67
2023/09/07 02:27:02;;;;;;;1.27;1.20;;;;;;;18.28;85.31;95755.22;4309814;33;20261;-68
2023/09/07 02:29:28;;;;;;;0.90;0.90;;;;;;;18.34;84.63;95762.72;4312291;33;20239;-67
2023/09/07 02:31:53;;;;;;;1.10;1.10;;;;;;;18.40;84.36;95763.31;4304065;33;20188;-67
2023/09/07 02:34:18;;;;;;;2.37;1.70;;;;;;;18.33;84.40;95771.91;4317334;33;20204;-67
2023/09/07 02:36:44;;;;;;;2.07;1.83;;;;;;;18.15;84.78;95775.88;4305147;33;20194;-67
2023/09/07 02:39:11;;;;;;;0.87;0.87;;;;;;;17.99;85.31;95769.53;4317810;33;20183;-68
2023/09/07 02:41:36;;;;;;;1.00;1.00;;;;;;;18.22;84.36;95770.75;4315230;32;20189;-67
2023/09/07 02:44:02;;;;;;;3.03;1.50;;;;;;;18.06;83.91;95772.50;4326692;33;20178;-67
2023/09/07 02:46:28;;;;;;;1.17;1.17;;;;;;;17.75;84.67;95767.50;4298533;33;20197;-67
2023/09/07 02:48:56;;;;;;;1.43;1.33;;;;;;;17.84;84.79;95766.34;4311007;33;20198;-67
2023/09/07 02:51:22;;;;;;;1.13;1.13;;;;;;;17.92;84.38;95766.59;4313372;33;20252;-67
2023/09/07 02:53:47;;;;;;;1.70;1.60;;;;;;;17.79;84.95;95774.59;4318609;33;20266;-67
2023/09/07 02:56:13;;;;;;;1.40;1.30;;;;;;;17.79;84.82;95769.22;4315095;33;20213;-67
2023/09/07 02:58:38;;;;;;;1.00;1.00;;;;;;;17.74;83.81;95772.09;4308048;33;20195;-67
2023/09/07 03:01:08;;;;;;;0.77;0.77;;;;;;;17.80;84.92;95770.78;4309400;33;20178;-67
2023/09/07 03:03:34;;;;;;;1.80;1.70;;;;;;;17.93;84.35;95768.16;4299876;33;20273;-66
2023/09/07 03:06:10;;;;;;;1.30;1.30;;;;;;;17.54;85.20;95767.47;4314230;33;20178;-66
2023/09/07 03:08:36;;;;;;;2.50;1.50;;;;;;;17.66;84.07;95769.50;4311018;33;20229;-66
2023/09/07 03:11:05;;;;;;;0.97;0.97;;;;;;;17.63;84.58;95765.53;4315913;33;20221;-66
2023/09/07 03:13:31;;;;;;;1.70;1.60;;;;;;;17.71;85.54;95762.00;4314548;33;20170;-67
2023/09/07 03:15:56;;;;;;;1.47;1.37;;;;;;;17.50;85.00;95763.87;4322302;33;20244;-67
2023/09/07 03:18:22;;;;;;;1.90;1.80;;;;;;;17.51;85.16;95763.53;4329908;33;20200;-67
2023/09/07 03:20:47;;;;;;;1.87;1.77;;;;;;;17.71;84.87;95766.59;4319657;33;20282;-66
2023/09/07 03:23:12;;;;;;;1.47;1.37;;;;;;;17.69;85.59;95771.50;4320947;33;20210;-66
2023/09/07 03:25:38;;;;;;;1.60;1.47;;;;;;;17.85;84.86;95775.19;4324514;33;20182;-66
2023/09/07 03:28:04;;;;;;;1.50;1.40;;;;;;;17.81;83.83;95774.25;4332672;33;20178;-66
2023/09/07 03:30:29;;;;;;;1.40;1.40;;;;;;;17.58;85.97;95770.31;4342132;32;20207;-66
2023/09/07 03:32:54;;;;;;;1.33;1.33;;;;;;;17.67;85.49;95766.47;4333922;32;20189;-66
2023/09/07 03:35:20;;;;;;;1.63;1.53;;;;;;;17.49;85.54;95773.03;4336307;32;20182;-66
2023/09/07 03:37:45;;;;;;;1.93;1.60;;;;;;;17.37;85.16;95778.31;4332162;33;20214;-66
2023/09/07 03:40:10;;;;;;;2.87;1.43;;;;;;;17.44;86.22;95773.25;4327010;33;20193;-66
2023/09/07 03:42:36;;;;;;;1.40;1.40;;;;;;;17.40;85.28;95767.75;4328349;32;20185;-66
2023/09/07 03:45:03;;;;;;;1.63;1.53;;;;;;;17.39;86.65;95768.06;4327053;33;20182;-66
2023/09/07 03:47:29;;;;;;;1.30;1.23;;;;;;;17.48;84.91;95774.94;4331006;33;20220;-66
2023/09/07 03:49:56;;;;;;;2.70;1.57;;;;;;;17.45;86.27;95774.81;4316996;33;20179;-66
2023/09/07 03:52:28;;;;;;;0.93;0.93;;;;;;;17.39;86.11;95776.91;4331718;32;20248;-66
2023/09/07 03:54:55;;;;;;;1.40;1.33;;;;;;;17.43;86.35;95779.72;4336963;32;20187;-66
2023/09/07 03:57:21;;;;;;;1.23;1.23;;;;;;;17.35;86.14;95777.84;4327029;32;20232;-66
2023/09/07 03:59:48;;;;;;;1.43;1.43;;;;;;;17.51;86.53;95773.50;4318125;33;20213;-66
2023/09/07 04:02:13;;;;;;;2.30;1.30;;;;;;;17.34;86.09;95773.59;4334831;32;20197;-66
2023/09/07 04:04:40;;;;;;;4.53;1.70;;;;;;;17.47;85.96;95772.56;4329475;32;20201;-66
2023/09/07 04:07:05;;;;;;;1.77;1.67;;;;;;;17.58;85.69;95775.66;4333831;32;20202;-66
2023/09/07 04:09:30;;;;;;;1.53;1.43;;;;;;;17.59;85.75;95783.38;4318026;33;20225;-66
2023/09/07 04:11:56;;;;;;;1.03;1.03;;;;;;;17.58;85.50;95775.66;4325909;33;20193;-66
2023/09/07 04:14:21;;;;;;;2.10;2.00;;;;;;;17.69;85.43;95785.69;4332822;32;20199;-66
2023/09/07 04:16:46;;;;;;;1.60;1.50;;;;;;;17.67;85.18;95785.25;4331149;32;20205;-66
2023/09/07 04:19:12;;;;;;;2.03;1.93;;;;;;;17.68;84.94;95780.66;4325029;33;20189;-66
2023/09/07 04:21:38;;;;;;;1.10;1.10;;;;;;;17.57;85.46;95782.94;4329999;32;20200;-66
2023/09/07 04:24:04;;;;;;;1.70;1.60;;;;;;;17.51;85.90;95784.22;4314690;33;20182;-66
2023/09/07 04:26:29;;;;;;;1.47;1.37;;;;;;;17.60;85.14;95779.59;4323911;33;20261;-66
2023/09/07 04:28:55;;;;;;;2.37;2.17;;;;;;;17.65;84.90;95784.81;4316627;33;20173;-66
2023/09/07 04:31:21;;;;;;;1.27;1.17;;;;;;;17.70;84.75;95783.81;4328413;33;20200;-66
2023/09/07 04:33:46;;;;;;;1.00;1.00;;;;;;;17.63;85.04;95787.00;4317739;33;20249;-66
2023/09/07 04:36:13;;;;;;;1.77;1.67;;;;;;;17.30;85.63;95786.87;4332228;33;20185;-67
2023/09/07 04:38:40;;;;;;;1.57;1.47;;;;;;;17.31;85.56;95791.13;4321185;33;20201;-66
2023/09/07 04:41:13;;;;;;;2.30;2.00;;;;;;;17.33;85.98;95788.13;4328353;32;20253;-66
2023/09/07 04:43:40;;;;;;;1.47;1.40;;;;;;;17.52;85.46;95783.91;4331222;32;20185;-66
2023/09/07 04:46:06;;;;;;;1.30;1.30;;;;;;;17.53;84.91;95788.16;4319482;33;20182;-66
2023/09/07 04:48:32;;;;;;;1.87;1.83;;;;;;;17.36;83.59;95787.47;4315906;33;20228;-66
2023/09/07 04:51:01;;;;;;;1.30;1.30;;;;;;;17.34;85.76;95793.16;4319804;33;20196;-66
2023/09/07 04:53:31;;;;;;;1.03;1.03;;;;;;;17.52;84.75;95791.16;4323211;33;20261;-66
2023/09/07 04:55:57;;;;;;;1.87;1.60;;;;;;;17.43;84.55;95798.50;4322614;33;20182;-66
2023/09/07 04:58:23;;;;;;;1.77;1.67;;;;;;;17.40;85.65;95791.09;4319456;33;20209;-66
2023/09/07 05:00:48;;;;;;;2.07;1.97;;;;;;;17.20;85.62;95794.50;4315230;33;20178;-66
2023/09/07 05:03:14;;;;;;;0.90;0.90;;;;;;;16.89;86.34;95800.94;4327548;32;20216;-66
2023/09/07 05:05:41;;;;;;;4.70;2.33;;;;;;;16.83;87.20;95802.25;4338007;32;20259;-66
2023/09/07 05:08:06;;;;;;;1.53;1.53;;;;;;;17.00;87.24;95806.75;4325170;33;20300;-67
2023/09/07 05:10:35;;;;;;;1.70;1.37;;;;;;;17.21;86.28;95796.09;4322418;33;20225;-67
2023/09/07 05:13:00;;;;;;;1.57;1.47;;;;;;;17.40;85.51;95793.78;4325597;33;20189;-66
2023/09/07 05:15:26;;;;;;;2.13;1.90;;;;;;;17.25;85.01;95795.09;4341035;32;20293;-66
2023/09/07 05:17:55;;;;;;;2.63;2.43;;;;;;;17.32;85.43;95799.97;4323324;32;20251;-67
2023/09/07 05:20:20;;;;;;;1.50;1.50;;;;;;;17.34;84.95;95803.09;4327914;33;20182;-66
2023/09/07 05:22:46;;;;;;;2.23;2.13;;;;;;;17.29;85.39;95803.28;4323375;33;20229;-67
2023/09/07 05:25:11;;;;;;;1.50;1.40;;;;;;;17.24;84.95;95798.91;4328164;33;20249;-67
2023/09/07 05:27:37;;;;;;;3.43;2.27;;;;;;;17.35;85.65;95794.75;4328633;33;20277;-66
2023/09/07 05:30:04;;;;;;;3.93;2.37;;;;;;;17.44;85.38;95800.06;4320166;33;20194;-67
2023/09/07 05:32:29;;;;;;;1.63;1.63;;;;;;;17.48;84.69;95804.44;4315149;33;20189;-67
2023/09/07 05:34:55;;;;;;;1.23;1.23;;;;;;;17.46;84.75;95805.88;4330229;33;20186;-67
2023/09/07 05:37:20;;;;;;;1.63;1.63;;;;;;;17.50;84.52;95810.25;4337095;33;20189;-67
2023/09/07 05:39:46;;;;;;;2.37;2.20;;;;;;;17.37;85.54;95813.19;4339142;33;20228;-66
2023/09/07 05:42:12;;;;;;;1.87;1.77;;;;;;;17.41;85.60;95812.22;4318558;33;20200;-67
2023/09/07 05:44:37;;;;;;;1.20;1.10;;;;;;;17.42;85.40;95818.38;4338327;33;20178;-67
2023/09/07 05:47:03;;;;;;;1.27;1.27;;;;;;;17.46;85.50;95813.91;4322707;33;20249;-67
2023/09/07 05:49:29;;;;;;;1.30;1.27;;;;;;;17.37;85.87;95821.25;4317824;33;20259;-67
2023/09/07 05:51:54;;;;;;;1.70;1.70;;;;;;;17.49;85.57;95824.00;4320752;33;20204;-67
2023/09/07 05:54:19;;;;;;;3.17;2.27;;;;;;;17.45;85.66;95820.41;4327063;33;20198;-67
2023/09/07 05:56:45;;;;;;;2.83;2.63;;;;;;;17.49;84.91;95821.31;4314746;33;20228;-67
2023/09/07 05:59:10;;;;;;;2.07;1.97;;;;;;;17.41;85.56;95816.81;4326523;33;20264;-67
2023/09/07 06:01:36;;;;;;;1.97;1.87;;;;;;;17.33;86.54;95831.03;4318253;33;20271;-66
2023/09/07 06:04:01;;;;;;;2.00;1.97;;;;;;;17.34;86.18;95832.59;4316419;33;20190;-66
2023/09/07 06:06:27;;;;;;;2.80;2.60;;;;;;;17.49;86.65;95824.00;4326080;33;20240;-66
2023/09/07 06:08:52;;;;;;;2.07;1.97;;;;;;;17.37;86.94;95834.66;4326852;33;20224;-66
2023/09/07 06:11:18;;;;;;;1.90;1.80;;;;;;;17.14;87.28;95839.50;4329585;33;20300;-66
2023/09/07 06:13:43;;;;;;;5.13;2.80;;;;;;;17.37;87.67;95829.28;4330105;33;20190;-66
2023/09/07 06:16:08;;;;;;;1.97;1.97;;;;;;;17.36;87.41;95825.03;4326767;32;20253;-66
2023/09/07 06:18:33;;;;;;;3.73;2.50;;;;;;;17.31;86.89;95830.56;4323685;32;20190;-66
2023/09/07 06:20:59;;;;;;;2.33;2.23;;;;;;;17.31;87.86;95835.94;4314696;33;20201;-67
2023/09/07 06:23:24;;;;;;;1.97;1.87;;;;;;;17.42;87.08;95823.75;4336641;32;20232;-66
2023/09/07 06:25:49;;;;;;;2.50;2.30;;;;;;;17.44;87.33;95826.91;4323958;33;20229;-66
2023/09/07 06:28:15;;;;;;;2.77;2.60;;;;;;;17.43;87.25;95828.00;4330257;32;20300;-66
2023/09/07 06:30:40;;;;;;;3.17;2.97;;;;;;;17.55;86.39;95830.75;4321573;33;20189;-66
2023/09/07 06:33:06;;;;;;;4.87;3.53;;;;;;;17.52;86.74;95828.72;4330996;33;20223;-66
2023/09/07 06:35:31;;;;;;;5.80;2.10;;;;;;;17.67;86.61;95825.50;4323314;33;20178;-66
2023/09/07 06:37:56;;;;;;;15.40;3.83;;;;;;;17.55;86.24;95821.94;4328912;32;20181;-66
2023/09/07 06:40:22;;;;;;;8.33;2.63;;;;;;;17.71;86.42;95826.41;4314374;32;20289;-67
2023/09/07 06:42:47;;;;;;;2.63;2.47;;;;;;;17.82;85.38;95837.56;4332244;32;20268;-67
2023/09/07 06:45:13;;;;;;;1.30;1.30;;;;;;;17.89;85.05;95828.97;4335397;32;20193;-67
2023/09/07 06:47:38;;;;;;;2.20;2.00;;;;;;;17.98;84.90;95830.50;4326769;33;20312;-67
2023/09/07 06:50:05;;;;;;;2.20;2.10;;;;;;;18.01;84.33;95829.06;4321649;32;20174;-67
2023/09/07 06:52:30;;;;;;;3.07;2.50;;;;;;;18.12;84.45;95828.31;4338801;32;20204;-66
2023/09/07 06:54:56;;;;;;;2.47;2.37;;;;;;;17.95;84.79;95825.78;4341494;32;20178;-67
2023/09/07 06:57:21;;;;;;;3.07;2.87;;;;;;;17.84;85.01;95830.78;4322751;32;20174;-67
2023/09/07 06:59:47;;;;;;;2.63;2.43;;;;;;;18.00;84.29;95825.59;4330561;32;20197;-66
2023/09/07 07:02:12;;;;;;;5.83;5.33;;;;;;;18.15;84.27;95824.19;4328156;32;20261;-67
2023/09/07 07:04:37;;;;;;;9.57;2.53;;;;;;;18.19;83.87;95823.22;4329485;32;20191;-69
2023/09/07 07:07:04;;;;;;;2.33;2.23;;;;;;;18.24;84.15;95830.31;4327058;32;20216;-68
2023/09/07 07:09:33;;;;;;;2.27;2.13;;;;;;;18.26;84.06;95830.75;4331835;32;20174;-68
2023/09/07 07:12:02;;;;;;;6.70;3.07;;;;;;;18.38;84.17;95830.78;4337222;32;20200;-67
2023/09/07 07:14:27;;;;;;;2.03;1.93;;;;;;;18.45;83.55;95832.97;4316436;33;20196;-66
2023/09/07 07:16:52;;;;;;;2.70;2.50;;;;;;;18.40;84.65;95836.62;4333738;32;20209;-68
2023/09/07 07:19:18;;;;;;;2.53;2.43;;;;;;;18.49;84.10;95828.50;4326980;32;20277;-67
2023/09/07 07:21:44;;;;;;;2.70;2.60;;;;;;;18.58;83.78;95836.47;4329966;33;20186;-68
2023/09/07 07:24:09;;;;;;;2.60;2.40;;;;;;;18.63;83.89;95838.97;4326470;33;20253;-65
2023/09/07 07:26:35;;;;;;;1.77;1.70;;;;;;;18.74;83.50;95842.81;4327780;32;20177;-65
2023/09/07 07:29:02;;;;;;;1.97;1.87;;;;;;;18.74;83.91;95840.13;4322721;33;20315;-66
2023/09/07 07:31:29;;;;;;;2.20;2.00;;;;;;;18.74;83.38;95845.50;4334699;33;20186;-69
2023/09/07 07:33:55;;;;;;;1.97;1.87;;;;;;;18.80;83.34;95844.19;4338417;32;20281;-67
2023/09/07 07:36:20;;;;;;;2.33;2.30;;;;;;;18.84;83.33;95839.72;4316424;33;20268;-66
2023/09/07 07:38:46;;;;;;;1.30;1.30;;;;;;;18.71;83.37;95846.94;4329812;32;20270;-67
2023/09/07 07:41:11;;;;;;;2.33;2.23;;;;;;;18.78;83.54;95849.09;4336160;32;20230;-67
2023/09/07 07:43:36;;;;;;;2.27;2.17;;;;;;;18.75;84.58;95849.75;4326115;33;20205;-67
2023/09/07 07:46:02;;;;;;;2.27;2.17;;;;;;;18.78;83.65;95843.72;4337101;32;20203;-67
2023/09/07 07:48:29;;;;;;;2.10;1.90;;;;;;;18.86;83.12;95850.91;4340187;32;20197;-67
2023/09/07 07:50:55;;;;;;;3.00;2.80;;;;;;;18.84;83.28;95845.88;4333238;32;20261;-67
2023/09/07 07:53:20;;;;;;;2.20;2.10;;;;;;;18.93;83.16;95845.75;4332460;33;20265;-66
2023/09/07 07:55:46;;;;;;;1.50;1.50;;;;;;;19.02;82.66;95854.53;4327794;33;20275;-67
2023/09/07 07:58:11;;;;;;;1.90;1.77;;;;;;;19.02;82.58;95848.38;4315855;33;20226;-68
2023/09/07 08:00:38;;;;;;;2.57;2.33;;;;;;;19.01;82.94;95847.56;4330505;32;20221;-68
2023/09/07 08:03:05;;;;;;;1.87;1.77;;;;;;;19.00;83.33;95853.28;4332300;32;20193;-68
2023/09/07 08:05:31;;;;;;;2.10;1.90;;;;;;;19.05;83.57;95845.78;4339414;32;20229;-67
2023/09/07 08:07:57;;;;;;;1.83;1.73;;;;;;;19.08;84.44;95845.13;4332437;32;20277;-70
2023/09/07 08:10:22;;;;;;;2.07;1.97;;;;;;;19.13;84.31;95850.28;4328910;32;20190;-68
2023/09/07 08:12:47;;;;;;;1.73;1.63;;;;;;;19.13;84.22;95841.41;4328304;32;20194;-70
2023/09/07 08:15:14;;;;;;;2.80;2.17;;;;;;;19.18;83.83;95839.31;4327343;33;20228;-69
2023/09/07 08:17:40;;;;;;;2.20;2.13;;;;;;;19.34;82.71;95834.03;4320087;33;20241;-68
2023/09/07 08:20:07;;;;;;;2.33;2.23;;;;;;;19.28;83.04;95843.47;4326644;33;20191;-69
2023/09/07 08:22:35;;;;;;;2.23;2.13;;;;;;;19.28;83.34;95834.59;4332383;32;20202;-68
2023/09/07 08:25:00;;;;;;;1.93;1.83;;;;;;;19.36;83.27;95839.09;4321155;33;20225;-68
2023/09/07 08:27:26;;;;;;;2.77;2.57;;;;;;;19.33;83.90;95840.53;4331849;32;20208;-68
2023/09/07 08:29:53;;;;;;;2.27;2.17;;;;;;;19.36;84.27;95844.47;4332975;32;20186;-68
2023/09/07 08:32:19;;;;;;;1.77;1.67;;;;;;;19.48;83.43;95842.56;4333051;32;20181;-68
2023/09/07 08:34:44;;;;;;;7.17;4.00;;;;;;;19.52;82.97;95846.19;4325349;32;20197;-67
2023/09/07 08:37:09;;;;;;;3.43;3.20;;;;;;;19.51;82.86;95846.53;4333164;32;20189;-69
2023/09/07 08:39:36;;;;;;;2.47;2.27;;;;;;;19.54;82.87;95845.84;4332809;32;20199;-68
2023/09/07 08:42:02;;;;;;;2.23;2.13;;;;;;;19.70;82.27;95838.66;4331807;33;20185;-68
2023/09/07 08:44:29;;;;;;;1.70;1.60;;;;;;;19.73;82.34;95837.22;4327307;32;20244;-66
2023/09/07 08:46:55;;;;;;;1.87;1.77;;;;;;;19.75;82.40;95840.31;4327463;33;20241;-66
2023/09/07 08:49:20;;;;;;;2.23;2.07;;;;;;;19.76;82.24;95842.69;4329035;32;20284;-68
2023/09/07 08:51:46;;;;;;;1.97;1.87;;;;;;;19.75;82.88;95841.09;4326900;32;20215;-69
2023/09/07 08:54:12;;;;;;;1.80;1.70;;;;;;;19.80;83.05;95829.31;4322311;33;20193;-66
2023/09/07 08:56:38;;;;;;;2.63;2.43;;;;;;;19.84;82.97;95838.28;4328859;33;20193;-67
2023/09/07 08:59:04;;;;;;;2.73;2.53;;;;;;;19.90;82.62;95832.34;4325899;33;20186;-68
2023/09/07 09:01:31;;;;;;;1.93;1.83;;;;;;;19.97;82.46;95839.84;4337035;32;20181;-65
2023/09/07 09:03:57;;;;;;;3.07;2.87;;;;;;;19.97;82.19;95836.34;4312005;33;20182;-66
2023/09/07 09:06:23;;;;;;;2.73;2.53;;;;;;;20.09;81.41;95839.03;4342003;32;20181;-66
2023/09/07 09:08:50;;;;;;;2.07;1.97;;;;;;;20.07;81.41;95841.28;4325171;32;20183;-66
2023/09/07 09:11:20;;;;;;;1.90;1.80;;;;;;;20.16;81.56;95825.78;4341734;32;20188;-66
2023/09/07 09:13:46;;;;;;;2.60;2.50;;;;;;;20.21;81.18;95836.28;4323456;33;20185;-66
2023/09/07 09:16:15;;;;;;;2.13;2.03;;;;;;;20.19;81.45;95833.16;4321938;33;20187;-65
2023/09/07 09:18:57;;;;;;;2.30;2.20;;;;;;;20.26;81.66;95833.34;4318636;33;20212;-65
2023/09/07 09:21:25;;;;;;;1.83;1.73;;;;;;;20.36;81.16;95832.09;4318620;33;20182;-66
2023/09/07 09:23:56;;;;;;;2.27;2.17;;;;;;;20.39;80.81;95832.22;4319730;33;20277;-66
2023/09/07 09:26:23;;;;;;;2.37;2.27;;;;;;;20.46;81.01;95827.03;4312322;33;20309;-65
2023/09/07 09:28:50;;;;;;;2.33;2.23;;;;;;;20.53;80.80;95826.44;4312174;33;20193;-66
2023/09/07 09:31:16;;;;;;;2.40;2.00;;;;;;;20.58;80.41;95820.78;4305582;33;20197;-69
2023/09/07 09:33:47;;;;;;;1.50;1.50;;;;;;;20.66;79.78;95824.47;4321069;33;20220;-68
2023/09/07 09:36:12;;;;;;;2.00;1.90;;;;;;;20.62;80.04;95815.47;4320100;33;20198;-67
2023/09/07 09:38:37;;;;;;;1.90;1.80;;;;;;;20.92;78.88;95813.97;4318759;33;20288;-67
2023/09/07 09:41:04;;;;;;;2.27;2.17;;;;;;;21.06;78.44;95817.03;4326500;33;20200;-67
2023/09/07 09:43:29;;;;;;;1.20;1.20;;;;;;;21.10;77.91;95812.50;4321037;33;20196;-67
2023/09/07 09:45:56;;;;;;;1.60;1.60;;;;;;;21.04;78.33;95802.31;4311314;33;20254;-67
2023/09/07 09:48:22;;;;;;;2.63;2.53;;;;;;;21.06;78.60;95810.84;4318041;33;20204;-66
2023/09/07 09:50:49;;;;;;;2.07;1.97;;;;;;;21.09;78.51;95820.94;4309504;33;20284;-67
2023/09/07 09:53:18;;;;;;;1.60;1.60;;;;;;;21.13;77.97;95816.41;4318085;33;20173;-67
2023/09/07 09:55:46;;;;;;;1.70;1.60;;;;;;;21.13;78.40;95814.50;4334660;32;20190;-66
2023/09/07 09:58:12;;;;;;;2.37;2.27;;;;;;;21.08;78.31;95808.56;4316814;33;20241;-69
2023/09/07 10:00:38;;;;;;;2.33;1.87;;;;;;;21.20;77.83;95811.22;4323018;33;20198;-68
2023/09/07 10:03:11;;;;;;;2.03;1.93;;;;;;;21.25;77.76;95814.44;4326293;33;20189;-65
2023/09/07 10:05:36;;;;;;;1.47;1.47;;;;;;;21.36;77.00;95812.00;4326410;33;20237;-65
2023/09/07 10:08:06;;;;;;;2.13;2.03;;;;;;;21.36;77.25;95812.00;4322189;33;20182;-68
2023/09/07 10:10:35;;;;;;;1.87;1.77;;;;;;;21.44;77.08;95811.00;4320358;33;20181;-66
2023/09/07 10:16:22;;;;;;;2.40;2.10;;;;;;;21.53;76.80;95811.63;4327674;33;20212;-67
2023/09/07 10:18:48;;;;;;;1.67;1.57;;;;;;;21.73;75.81;95812.44;4315554;33;20273;-66
2023/09/07 10:21:13;;;;;;;2.13;1.70;;;;;;;21.70;75.90;95815.84;4315403;33;20252;-66
2023/09/07 10:23:41;;;;;;;2.10;2.00;;;;;;;21.76;75.66;95802.88;4338031;32;20197;-67
2023/09/07 10:26:11;;;;;;;1.40;1.40;;;;;;;21.81;75.91;95802.59;4327059;32;20304;-67
2023/09/07 10:28:37;;;;;;;1.53;1.53;;;;;;;21.75;75.75;95804.00;4328306;33;20215;-67
2023/09/07 10:31:13;;;;;;;2.27;2.17;;;;;;;21.94;74.81;95804.03;4323483;33;20208;-67
2023/09/07 10:33:39;;;;;;;2.07;1.97;;;;;;;22.01;74.37;95806.12;4323791;33;20197;-67
2023/09/07 10:36:05;;;;;;;2.13;2.03;;;;;;;21.97;74.69;95802.53;4316960;33;20224;-66
2023/09/07 10:38:35;;;;;;;1.33;1.23;;;;;;;22.18;73.47;95800.31;4329633;33;20199;-68
2023/09/07 10:41:04;;;;;;;2.13;1.83;;;;;;;22.15;73.38;95799.09;4312120;33;20205;-67
2023/09/07 10:43:31;;;;;;;1.80;1.12;;;;;;;22.19;73.56;95801.87;4322317;33;20047;-67
2023/09/07 10:45:58;;;;;;;2.17;2.07;;;;;;;22.28;73.57;95791.63;4331898;33;20208;-67
2023/09/07 10:48:25;;;;;;;1.43;1.33;;;;;;;22.26;73.00;95791.19;4317929;33;20177;-67
2023/09/07 10:50:51;;;;;;;1.97;1.90;;;;;;;22.50;72.07;95800.91;4325673;33;20256;-67
2023/09/07 10:53:28;;;;;;;0.90;0.90;;;;;;;22.41;72.53;95793.03;4331182;33;20415;-67
2023/09/07 10:55:56;;;;;;;1.90;1.73;;;;;;;22.42;72.62;95788.41;4330080;33;20178;-67
2023/09/07 10:58:30;;;;;;;1.70;1.60;;;;;;;22.51;72.31;95792.44;4318720;33;20285;-67
2023/09/07 11:00:56;;;;;;;5.13;2.10;;;;;;;22.68;70.80;95793.13;4313104;33;20235;-67
2023/09/07 11:03:22;;;;;;;1.87;1.77;;;;;;;22.65;70.78;95791.94;4349055;27;20207;-69
2023/09/07 11:05:49;;;;;;;1.23;1.23;;;;;;;22.75;70.69;95790.56;4292303;33;20195;-69
2023/09/07 11:08:14;;;;;;;3.00;2.80;;;;;;;22.89;70.18;95796.25;4300284;33;20283;-69
2023/09/07 11:10:40;;;;;;;1.93;1.93;;;;;;;22.83;70.53;95795.00;4302933;33;20260;-69
2023/09/07 11:13:06;;;;;;;1.60;1.50;;;;;;;22.86;70.38;95791.56;4297612;33;20249;-69
2023/09/07 11:15:33;;;;;;;1.33;1.33;;;;;;;22.88;70.55;95794.69;4300485;33;20230;-68
2023/09/07 11:18:04;;;;;;;3.30;3.10;;;;;;;22.88;70.50;95789.25;4301283;33;20210;-69
2023/09/07 11:20:29;;;;;;;2.17;1.53;;;;;;;22.85;71.14;95787.31;4307578;33;20191;-69
2023/09/07 11:22:55;;;;;;;1.80;1.70;;;;;;;22.95;70.50;95786.69;4294118;33;20249;-68
2023/09/07 11:25:20;;;;;;;1.47;1.47;;;;;;;23.05;69.96;95788.81;4300029;33;20308;-70
2023/09/07 11:27:46;;;;;;;1.67;1.57;;;;;;;23.22;70.21;95780.19;4301019;33;20213;-69
2023/09/07 11:30:12;;;;;;;1.70;1.60;;;;;;;23.23;70.44;95784.47;4304525;33;20212;-69
2023/09/07 11:32:38;;;;;;;1.60;1.50;;;;;;;23.34;70.33;95783.81;4298506;33;20190;-69